Time;durP1;ratioP1;P1;durP2;ratioP2;P2;SDS_P1;SDS_P2;PMS_P1;PMS_P2;Temp;Humidity;BMP_temperature;BMP_pressure;BME280_temperature;BME280_humidity;BME280_pressure;Samples;Min_cycle;Max_cycle;Signal;HPM_P1;HPM_P2
2023/09/05 00:00:33;;;;;;;;;;;21.30;72.30;;;20.57;61.94;100226.06;10414227;28;871;-70
2023/09/05 00:05:31;;;;;;;;;;;21.30;72.10;;;20.57;61.90;100224.28;10414087;28;813;-71
2023/09/05 00:10:27;;;;;;;;;;;21.30;72.40;;;20.57;61.95;100229.56;10413372;28;825;-71
2023/09/05 00:15:22;;;;;;;;;;;21.30;72.30;;;20.58;62.01;100227.78;10413066;28;1921;-71
2023/09/05 00:20:18;;;;;;;;;;;21.30;72.30;;;20.58;61.61;100217.19;10412998;28;885;-70
2023/09/05 00:25:15;;;;;;;;;;;21.30;72.20;;;20.57;61.99;100212.84;10412625;28;893;-71
2023/09/05 00:30:13;;;;;;;;;;;21.30;72.20;;;20.56;61.87;100201.34;10412510;28;1147;-71
2023/09/05 00:35:08;;;;;;;;;;;21.30;72.10;;;20.57;62.00;100204.88;10412265;28;1917;-71
2023/09/05 00:40:04;;;;;;;;;;;21.30;72.10;;;20.57;62.02;100204.88;10412723;28;833;-71
2023/09/05 00:44:59;;;;;;;;;;;21.30;72.20;;;20.55;61.94;100199.66;10412569;28;830;-71
2023/09/05 00:49:55;;;;;;;;;;;21.30;72.10;;;20.56;62.02;100193.41;10411955;28;871;-71
2023/09/05 00:54:51;;;;;;;;;;;21.30;72.10;;;20.56;61.82;100197.84;10411312;28;1965;-71
2023/09/05 00:59:46;;;;;;;;;;;21.30;72.10;;;20.55;62.00;100204.09;10411393;28;798;-70
2023/09/05 01:04:43;;;;;;;;;;;21.30;72.10;;;20.55;61.99;100196.16;10411209;28;844;-71
2023/09/05 01:09:38;;;;;;;;;;;21.30;71.70;;;20.55;61.93;100197.00;10410928;28;817;-71
2023/09/05 01:14:33;;;;;;;;;;;21.30;72.20;;;20.54;61.91;100192.66;10411331;28;1964;-71
2023/09/05 01:19:29;;;;;;;;;;;21.30;72.10;;;20.55;61.93;100204.09;10409943;28;1202;-71
2023/09/05 01:24:24;;;;;;;;;;;21.30;71.90;;;20.54;61.89;100197.94;10409770;28;935;-71
2023/09/05 01:29:40;;;;;;;;;;;21.30;72.00;;;20.55;61.93;100185.56;10410004;28;1341;-71
2023/09/05 01:34:35;;;;;;;;;;;21.30;71.90;;;20.54;61.87;100187.34;10409421;28;2187;-71
2023/09/05 01:39:31;;;;;;;;;;;21.30;72.00;;;20.54;61.93;100186.47;10409752;28;884;-71
2023/09/05 01:44:26;;;;;;;;;;;21.30;72.00;;;20.53;61.82;100188.22;10409545;28;811;-71
2023/09/05 01:49:22;;;;;;;;;;;21.30;71.90;;;20.52;62.07;100185.69;10409354;28;873;-71
2023/09/05 01:54:17;;;;;;;;;;;21.30;72.00;;;20.52;62.00;100181.22;10409129;28;1905;-71
2023/09/05 01:59:13;;;;;;;;;;;21.20;71.90;;;20.52;61.79;100188.31;10409866;28;789;-71
2023/09/05 02:04:08;;;;;;;;;;;21.30;71.90;;;20.53;61.74;100187.38;10409396;28;923;-71
2023/09/05 02:09:07;;;;;;;;;;;21.20;71.80;;;20.52;61.92;100183.03;10408702;28;833;-71
2023/09/05 02:14:03;;;;;;;;;;;21.20;71.70;;;20.52;61.79;100180.38;10409338;28;1909;-71
2023/09/05 02:18:58;;;;;;;;;;;21.20;71.70;;;20.52;61.85;100175.09;10409310;28;955;-71
2023/09/05 02:23:54;;;;;;;;;;;21.20;71.70;;;20.50;61.78;100182.22;10408849;28;871;-71
2023/09/05 02:28:49;;;;;;;;;;;21.20;71.70;;;20.50;61.87;100176.94;10407798;28;1462;-71
2023/09/05 02:33:44;;;;;;;;;;;21.20;71.70;;;20.51;61.83;100178.63;10408110;28;1910;-71
2023/09/05 02:38:40;;;;;;;;;;;21.20;71.70;;;20.50;61.83;100175.13;10407939;28;773;-71
2023/09/05 02:43:35;;;;;;;;;;;21.20;71.70;;;20.48;61.79;100182.28;10407772;28;793;-71
2023/09/05 02:48:31;;;;;;;;;;;21.20;71.70;;;20.49;61.86;100186.69;10407128;28;904;-71
2023/09/05 02:53:26;;;;;;;;;;;21.20;71.60;;;20.49;61.92;100183.19;10408187;28;1981;-71
2023/09/05 02:58:21;;;;;;;;;;;21.20;71.70;;;20.48;61.95;100184.94;10407648;28;852;-71
2023/09/05 03:03:17;;;;;;;;;;;21.20;71.60;;;20.47;61.85;100185.03;10408422;28;869;-71
2023/09/05 03:08:12;;;;;;;;;;;21.20;72.60;;;20.45;61.98;100189.53;10407564;28;782;-71
2023/09/05 03:13:07;;;;;;;;;;;21.20;71.60;;;20.45;61.84;100193.03;10406663;28;912;-70
2023/09/05 03:18:03;;;;;;;;;;;21.20;71.60;;;20.44;61.87;100188.69;10407672;28;1969;-71
2023/09/05 03:22:58;;;;;;;;;;;21.20;71.60;;;20.43;61.93;100186.94;10415169;28;896;-71
2023/09/05 03:27:54;;;;;;;;;;;21.20;71.60;;;20.42;61.90;100184.38;10414851;28;1170;-71
2023/09/05 03:32:49;;;;;;;;;;;21.20;71.50;;;20.42;61.90;100179.09;10415122;28;545;-71
2023/09/05 03:37:44;;;;;;;;;;;21.20;71.50;;;20.43;61.84;100180.81;10414657;28;1898;-71
2023/09/05 03:42:40;;;;;;;;;;;21.20;71.50;;;20.41;61.92;100185.31;10413915;28;938;-71
2023/09/05 03:47:36;;;;;;;;;;;21.20;71.50;;;20.41;62.06;100182.66;10414695;28;947;-71
2023/09/05 03:52:31;;;;;;;;;;;21.20;71.60;;;20.40;61.83;100180.94;10415085;28;845;-71
2023/09/05 03:57:26;;;;;;;;;;;21.20;71.50;;;20.40;61.70;100187.09;10413784;28;1959;-71
2023/09/05 04:02:22;;;;;;;;;;;21.20;71.60;;;20.39;61.81;100185.41;10413817;28;777;-71
2023/09/05 04:07:17;;;;;;;;;;;21.20;71.50;;;20.40;61.87;100180.94;10413441;28;833;-71
2023/09/05 04:12:13;;;;;;;;;;;21.20;71.60;;;20.38;61.95;100191.59;10412709;28;872;-71
2023/09/05 04:17:08;;;;;;;;;;;21.20;71.60;;;20.37;61.94;100192.53;10413589;28;1961;-71
2023/09/05 04:22:03;;;;;;;;;;;21.20;71.50;;;20.36;61.91;100196.13;10413539;28;880;-71
2023/09/05 04:26:59;;;;;;;;;;;21.20;71.50;;;20.35;61.85;100187.31;10412687;28;805;-71
2023/09/05 04:31:55;;;;;;;;;;;21.20;71.50;;;20.34;61.93;100200.63;10412220;28;1154;-71
2023/09/05 04:36:51;;;;;;;;;;;21.20;71.60;;;20.33;62.06;100199.78;10412393;28;1955;-70
2023/09/05 04:41:46;;;;;;;;;;;21.20;71.50;;;20.33;62.07;100201.53;10412814;28;862;-70
2023/09/05 04:46:45;;;;;;;;;;;21.20;71.50;;;20.34;62.14;100201.50;10412562;28;869;-72
2023/09/05 04:51:40;;;;;;;;;;;21.20;71.50;;;20.33;61.85;100206.84;10411331;28;897;-72
2023/09/05 04:56:36;;;;;;;;;;;21.20;71.50;;;20.31;62.09;100212.22;10410991;28;1909;-72
2023/09/05 05:01:31;;;;;;;;;;;21.10;70.90;;;20.29;61.76;100210.56;10411441;28;829;-72
2023/09/05 05:06:28;;;;;;;;;;;21.10;70.90;;;20.29;61.74;100214.06;10411147;28;856;-71
2023/09/05 05:11:24;;;;;;;;;;;21.10;70.70;;;20.35;61.61;100213.78;10412051;28;787;-69
2023/09/05 05:16:19;;;;;;;;;;;21.10;70.70;;;20.34;61.65;100213.88;10411228;28;1965;-69
2023/09/05 05:21:15;;;;;;;;;;;21.10;70.80;;;20.34;61.71;100212.06;10409902;28;1194;-70
2023/09/05 05:26:10;;;;;;;;;;;21.10;70.80;;;20.35;61.78;100215.56;10411003;28;913;-70
2023/09/05 05:31:05;;;;;;;;;;;21.10;71.00;;;20.35;61.74;100218.22;10409616;28;1370;-71
2023/09/05 05:36:01;;;;;;;;;;;21.10;71.00;;;20.35;61.56;100220.88;10410423;28;1956;-71
2023/09/05 05:40:57;;;;;;;;;;;21.10;71.00;;;20.36;61.81;100226.09;10408377;28;920;-68
2023/09/05 05:45:54;;;;;;;;;;;21.10;71.10;;;20.21;60.11;100229.47;10409886;28;1029;-69
2023/09/05 05:50:49;;;;;;;;;;;21.00;67.70;;;20.10;59.18;100226.44;10408837;28;927;-69
2023/09/05 05:55:45;;;;;;;;;;;20.90;65.50;;;20.05;58.50;100217.84;10409724;28;1906;-69
2023/09/05 06:00:45;;;;;;;;;;;20.90;65.60;;;20.02;58.56;100233.88;10409043;28;863;-68
2023/09/05 06:05:41;;;;;;;;;;;20.90;64.50;;;20.03;58.24;100220.56;10408878;28;1309;-69
2023/09/05 06:10:36;;;;;;;;;;;20.90;65.70;;;20.03;57.92;100222.34;10408810;28;904;-69
2023/09/05 06:15:32;;;;;;;;;;;20.90;65.30;;;19.99;57.25;100223.41;10408533;28;1914;-68
2023/09/05 06:20:28;;;;;;;;;;;20.90;63.50;;;19.95;55.94;100219.19;10408947;28;809;-68
2023/09/05 06:25:24;;;;;;;;;;;20.80;62.90;;;19.98;56.21;100214.63;10408803;28;923;-69
2023/09/05 06:30:20;;;;;;;;;;;20.80;63.00;;;20.05;56.04;100216.06;10408470;28;1495;-69
2023/09/05 06:35:15;;;;;;;;;;;20.90;62.60;;;20.09;56.08;100214.13;10407955;28;1921;-69
2023/09/05 06:40:15;;;;;;;;;;;20.90;62.30;;;20.12;56.35;100216.63;10408533;28;889;-69
2023/09/05 06:45:10;;;;;;;;;;;20.90;62.40;;;20.14;56.61;100222.72;10407775;28;894;-68
2023/09/05 06:50:06;;;;;;;;;;;20.90;62.60;;;20.16;56.79;100220.88;10409176;28;911;-68
2023/09/05 06:55:01;;;;;;;;;;;20.90;63.10;;;20.17;57.13;100225.22;10394399;28;1906;-69
2023/09/05 06:59:56;;;;;;;;;;;20.90;63.50;;;20.20;57.23;100235.69;10416808;28;834;-69
2023/09/05 07:04:52;;;;;;;;;;;20.90;63.80;;;20.22;57.59;100239.09;10416593;28;817;-70
2023/09/05 07:09:47;;;;;;;;;;;20.90;64.20;;;20.23;57.63;100238.19;10415675;28;824;-68
2023/09/05 07:14:43;;;;;;;;;;;20.90;64.60;;;20.24;57.68;100231.09;10416114;28;1961;-69
2023/09/05 07:19:38;;;;;;;;;;;20.90;64.80;;;20.25;57.97;100231.06;10415369;28;837;-68
2023/09/05 07:24:34;;;;;;;;;;;21.00;65.30;;;20.27;58.19;100228.31;10416186;28;858;-68
2023/09/05 07:29:31;;;;;;;;;;;20.90;65.50;;;20.28;58.21;100230.06;10414564;28;1249;-68
2023/09/05 07:34:26;;;;;;;;;;;20.90;65.70;;;20.29;58.43;100232.59;10414778;28;1906;-67
2023/09/05 07:39:22;;;;;;;;;;;21.00;66.10;;;20.29;58.40;100222.03;10414660;28;907;-68
2023/09/05 07:44:19;;;;;;;;;;;21.00;66.30;;;20.31;58.65;100236.06;10414300;28;996;-68
2023/09/05 07:49:14;;;;;;;;;;;21.00;66.50;;;20.31;58.59;100236.06;10414115;28;960;-68
2023/09/05 07:54:10;;;;;;;;;;;21.00;66.60;;;20.34;58.74;100233.25;10414054;28;1906;-70
2023/09/05 07:59:06;;;;;;;;;;;21.00;66.80;;;20.33;58.87;100238.59;10413809;28;867;-70
2023/09/05 08:04:01;;;;;;;;;;;21.00;66.90;;;20.33;59.04;100251.84;10412839;28;778;-69
2023/09/05 08:08:57;;;;;;;;;;;21.00;67.00;;;20.35;58.97;100248.19;10413515;28;844;-69
2023/09/05 08:13:53;;;;;;;;;;;21.00;67.10;;;20.35;58.98;100253.50;10413231;28;1953;-70
2023/09/05 08:18:48;;;;;;;;;;;21.00;67.30;;;20.36;59.06;100251.72;10412957;28;1156;-68
2023/09/05 08:23:44;;;;;;;;;;;21.00;67.30;;;20.39;59.01;100256.03;10412808;28;866;-70
2023/09/05 08:28:44;;;;;;;;;;;21.00;67.50;;;20.40;58.99;100255.09;10412328;28;1181;-67
2023/09/05 08:33:39;;;;;;;;;;;21.00;67.70;;;20.40;59.33;100257.75;10423120;27;1909;-67
2023/09/05 08:38:37;;;;;;;;;;;21.00;67.90;;;20.42;59.59;100255.88;10444645;27;1064;-70
2023/09/05 08:43:33;;;;;;;;;;;21.00;68.10;;;20.44;59.46;100246.94;10411483;28;798;-70
2023/09/05 08:48:28;;;;;;;;;;;21.00;68.10;;;20.44;59.38;100246.94;10411912;28;857;-71
2023/09/05 08:53:24;;;;;;;;;;;21.00;68.10;;;20.45;59.71;100232.75;10414752;27;927;-70
2023/09/05 08:58:20;;;;;;;;;;;21.10;68.30;;;20.47;59.63;100230.06;10411527;28;1967;-70
2023/09/05 09:03:17;;;;;;;;;;;21.10;68.50;;;20.48;59.83;100234.41;10409557;28;860;-70
2023/09/05 09:08:12;;;;;;;;;;;21.10;68.50;;;20.49;59.61;100230.84;10452620;27;1113;-69
2023/09/05 09:13:08;;;;;;;;;;;21.10;68.50;;;20.51;59.66;100234.25;10450878;27;945;-68
2023/09/05 09:18:04;;;;;;;;;;;21.10;68.60;;;20.50;59.87;100235.19;10409805;27;1909;-68
2023/09/05 09:22:59;;;;;;;;;;;21.10;68.70;;;20.50;59.83;100220.16;10437395;27;879;-68
2023/09/05 09:27:57;;;;;;;;;;;21.10;69.00;;;20.51;60.04;100226.31;10451754;27;1003;-68
2023/09/05 09:32:52;;;;;;;;;;;21.10;69.10;;;20.52;59.94;100228.91;10450894;27;762;-68
2023/09/05 09:37:48;;;;;;;;;;;21.10;69.20;;;20.52;60.08;100222.75;10447164;27;1965;-68
2023/09/05 09:42:44;;;;;;;;;;;21.10;69.20;;;20.53;60.06;100216.50;10439758;27;904;-70
2023/09/05 09:47:39;;;;;;;;;;;21.10;69.20;;;20.53;60.26;100206.78;10450005;27;1003;-68
2023/09/05 09:52:35;;;;;;;;;;;21.10;69.30;;;20.53;60.07;100206.78;10432680;27;859;-68
2023/09/05 09:57:33;;;;;;;;;;;21.10;69.40;;;20.54;60.27;100203.25;10408695;28;1956;-68
2023/09/05 10:02:29;;;;;;;;;;;21.10;69.70;;;20.56;60.29;100209.28;10430101;27;1682;-68
2023/09/05 10:07:24;;;;;;;;;;;21.10;69.60;;;20.56;60.21;100198.72;10410074;27;851;-69
2023/09/05 10:12:21;;;;;;;;;;;21.10;69.60;;;20.57;60.28;100196.94;10408687;28;760;-69
2023/09/05 10:17:16;;;;;;;;;;;21.10;69.60;;;20.56;60.57;100198.72;10408410;28;1906;-68
2023/09/05 10:22:16;;;;;;;;;;;21.10;69.80;;;20.57;60.57;100195.16;10408340;28;838;-68
2023/09/05 10:27:11;;;;;;;;;;;21.10;69.90;;;20.57;60.47;100191.66;10407820;28;897;-68
2023/09/05 10:32:07;;;;;;;;;;;21.10;70.00;;;20.58;60.50;100190.69;10407643;28;1156;-68
2023/09/05 10:37:03;;;;;;;;;;;21.10;70.00;;;20.58;60.56;100196.00;10407862;28;1965;-68
2023/09/05 10:41:58;;;;;;;;;;;21.10;70.10;;;20.60;60.57;100195.94;10408174;28;1179;-68
2023/09/05 10:46:54;;;;;;;;;;;21.20;70.20;;;20.60;60.43;100188.84;10407162;28;901;-67
2023/09/05 10:51:49;;;;;;;;;;;21.20;70.20;;;20.61;60.63;100190.53;10408369;28;820;-66
2023/09/05 10:56:44;;;;;;;;;;;21.10;70.10;;;20.63;60.50;100187.84;10407677;28;1968;-68
2023/09/05 11:01:44;;;;;;;;;;;21.20;70.20;;;20.63;60.50;100180.75;10407503;28;973;-67
2023/09/05 11:06:42;;;;;;;;;;;21.20;70.10;;;20.66;60.39;100182.38;10423172;28;1740;-68
2023/09/05 11:11:40;;;;;;;;;;;21.20;70.10;;;20.65;60.26;100184.19;10437610;28;793;-68
2023/09/05 11:16:35;;;;;;;;;;;21.20;70.10;;;20.67;60.23;100178.78;10407686;28;1913;-68
2023/09/05 11:21:31;;;;;;;;;;;21.20;70.10;;;20.69;60.29;100184.88;10407344;28;833;-68
2023/09/05 11:26:27;;;;;;;;;;;21.20;70.10;;;20.68;60.30;100188.47;10407104;28;774;-68
2023/09/05 11:31:22;;;;;;;;;;;21.20;70.00;;;20.68;60.35;100186.69;10406152;28;1653;-68
2023/09/05 11:36:18;;;;;;;;;;;21.20;70.10;;;20.70;60.47;100192.78;10406914;28;1906;-69
2023/09/05 11:41:13;;;;;;;;;;;21.20;70.10;;;20.70;60.53;100189.28;10410802;28;856;-69
2023/09/05 11:46:09;;;;;;;;;;;21.20;70.30;;;20.70;60.51;100183.97;10415051;28;954;-69
2023/09/05 11:51:04;;;;;;;;;;;21.20;70.30;;;20.70;60.52;100173.38;10414176;28;897;-68
2023/09/05 11:56:00;;;;;;;;;;;21.20;70.30;;;20.72;60.38;100177.66;10414063;28;1905;-69
2023/09/05 12:00:55;;;;;;;;;;;21.20;70.30;;;20.72;60.61;100176.78;10413905;28;738;-68
2023/09/05 12:05:51;;;;;;;;;;;21.30;70.40;;;20.71;60.66;100178.59;10414000;28;841;-67
2023/09/05 12:10:51;;;;;;;;;;;21.20;70.50;;;20.74;60.57;100165.19;10413332;28;818;-68
2023/09/05 12:15:46;;;;;;;;;;;21.30;70.50;;;20.63;61.01;100156.91;10413149;28;1959;-67
2023/09/05 12:20:42;;;;;;;;;;;21.20;70.50;;;20.68;61.07;100144.28;10413139;28;849;-72
2023/09/05 12:25:37;;;;;;;;;;;21.30;70.90;;;20.76;60.97;100150.06;10412854;28;857;-68
2023/09/05 12:30:33;;;;;;;;;;;21.40;71.20;;;20.72;60.95;100142.34;10411555;28;1117;-73
2023/09/05 12:35:29;;;;;;;;;;;21.30;71.10;;;20.68;60.98;100139.00;10411467;28;1906;-71
2023/09/05 12:40:24;;;;;;;;;;;21.30;71.20;;;20.68;61.15;100140.78;10412118;28;866;-73
2023/09/05 12:45:19;;;;;;;;;;;21.30;71.20;;;20.64;60.88;100134.78;10412068;28;858;-73
2023/09/05 12:50:15;;;;;;;;;;;21.30;71.10;;;20.64;60.91;100126.81;10411548;28;777;-73
2023/09/05 12:55:10;;;;;;;;;;;21.30;71.10;;;20.63;60.85;100125.13;10411665;28;1965;-73
2023/09/05 13:00:07;;;;;;;;;;;21.30;71.00;;;20.63;60.88;100116.31;10393325;28;844;-73
2023/09/05 13:05:02;;;;;;;;;;;21.30;71.00;;;20.63;60.81;100114.53;10411307;28;801;-73
2023/09/05 13:09:58;;;;;;;;;;;21.30;70.80;;;20.64;60.75;100110.09;10411466;28;866;-73
2023/09/05 13:14:54;;;;;;;;;;;21.30;70.80;;;20.63;60.67;100101.28;10410742;28;1901;-73
2023/09/05 13:19:49;;;;;;;;;;;21.30;70.60;;;20.64;60.69;100097.69;10410700;28;965;-73
2023/09/05 13:24:44;;;;;;;;;;;21.30;70.60;;;20.64;60.66;100103.00;10410474;28;858;-73
2023/09/05 13:29:40;;;;;;;;;;;21.30;70.50;;;20.65;60.68;100102.06;10410776;28;1099;-73
2023/09/05 13:34:35;;;;;;;;;;;21.30;70.50;;;20.65;60.61;100091.47;10410093;28;1906;-73
2023/09/05 13:39:31;;;;;;;;;;;21.30;70.50;;;20.67;60.65;100084.31;10410435;28;844;-73
2023/09/05 13:44:26;;;;;;;;;;;21.30;70.50;;;20.68;60.37;100093.97;10410145;28;793;-73
2023/09/05 13:49:22;;;;;;;;;;;21.30;70.30;;;20.67;60.58;100079.03;10409600;28;897;-73
2023/09/05 13:54:20;;;;;;;;;;;21.30;70.30;;;20.70;60.56;100078.00;10408745;28;1960;-73
2023/09/05 13:59:16;;;;;;;;;;;21.30;70.20;;;20.70;60.48;100073.56;10409173;28;874;-73
2023/09/05 14:04:12;;;;;;;;;;;21.30;70.10;;;20.71;60.42;100074.41;10408220;28;866;-73
2023/09/05 14:09:08;;;;;;;;;;;21.30;70.00;;;20.73;60.43;100065.47;10408331;28;845;-73
2023/09/05 14:14:03;;;;;;;;;;;21.30;70.00;;;20.74;60.48;100059.22;10408493;28;1964;-73
2023/09/05 14:18:58;;;;;;;;;;;21.30;69.90;;;20.75;60.40;100057.41;10409233;28;818;-73
2023/09/05 14:23:54;;;;;;;;;;;21.30;69.90;;;20.75;60.37;100050.34;10408375;28;780;-73
2023/09/05 14:28:49;;;;;;;;;;;21.40;70.00;;;20.76;60.43;100048.56;10408368;28;1357;-73
2023/09/05 14:33:44;;;;;;;;;;;21.40;70.00;;;20.78;60.33;100044.88;10408167;28;870;-73
2023/09/05 14:38:40;;;;;;;;;;;21.40;69.90;;;20.80;60.39;100044.78;10407342;28;1910;-73
2023/09/05 14:43:35;;;;;;;;;;;21.40;69.90;;;20.81;60.25;100041.22;10408137;28;881;-73
2023/09/05 14:48:31;;;;;;;;;;;21.40;70.00;;;20.82;60.16;100040.28;10407840;28;889;-73
2023/09/05 14:53:26;;;;;;;;;;;21.40;69.70;;;20.85;60.24;100039.28;10407275;28;956;-73
2023/09/05 14:58:21;;;;;;;;;;;21.40;69.90;;;20.86;60.09;100041.84;10407738;28;1918;-73
2023/09/05 15:03:17;;;;;;;;;;;21.50;69.80;;;20.88;60.06;100034.69;10408063;28;929;-73
2023/09/05 15:08:12;;;;;;;;;;;21.40;69.80;;;20.90;60.21;100042.53;10408035;28;821;-73
2023/09/05 15:13:08;;;;;;;;;;;21.50;69.70;;;20.92;60.02;100045.97;10407683;28;925;-73
2023/09/05 15:18:03;;;;;;;;;;;21.50;69.60;;;20.94;60.10;100033.50;10415555;28;1972;-73
2023/09/05 15:22:58;;;;;;;;;;;21.50;69.60;;;20.95;60.00;100025.47;10415493;28;923;-73
2023/09/05 15:27:54;;;;;;;;;;;21.60;69.70;;;20.97;59.91;100023.59;10414446;28;1322;-73
2023/09/05 15:32:51;;;;;;;;;;;21.60;69.60;;;20.98;59.95;100019.16;10415081;28;1063;-68
2023/09/05 15:37:46;;;;;;;;;;;21.50;69.60;;;21.00;59.91;100012.81;10414894;28;1976;-68
2023/09/05 15:42:42;;;;;;;;;;;21.60;69.70;;;21.02;59.83;100010.97;10413985;28;954;-73
2023/09/05 15:47:38;;;;;;;;;;;21.60;69.60;;;21.04;59.97;100013.53;10415170;28;911;-73
2023/09/05 15:52:33;;;;;;;;;;;21.60;69.40;;;21.05;59.87;100012.59;10413947;28;951;-73
2023/09/05 15:57:28;;;;;;;;;;;21.60;69.40;;;21.07;59.94;100009.88;10414043;28;1937;-72
2023/09/05 16:02:24;;;;;;;;;;;21.60;69.30;;;21.07;59.68;100000.13;10414651;28;833;-72
2023/09/05 16:07:19;;;;;;;;;;;21.70;69.30;;;21.08;59.80;100007.13;10413915;28;780;-72
2023/09/05 16:12:14;;;;;;;;;;;21.70;69.20;;;21.11;59.69;100008.75;10414745;28;893;-72
2023/09/05 16:17:10;;;;;;;;;;;21.70;69.20;;;21.10;59.81;100002.59;10413230;28;1973;-71
2023/09/05 16:22:05;;;;;;;;;;;21.70;69.10;;;21.11;59.72;100009.59;10413105;28;889;-73
2023/09/05 16:27:02;;;;;;;;;;;21.70;69.10;;;21.12;59.69;100002.53;10412673;28;861;-73
2023/09/05 16:32:00;;;;;;;;;;;21.80;69.30;;;21.14;59.79;100008.59;10412756;28;1221;-72
2023/09/05 16:36:56;;;;;;;;;;;21.70;69.10;;;21.13;59.60;100013.03;10412957;28;1956;-73
2023/09/05 16:41:51;;;;;;;;;;;21.80;69.30;;;21.14;59.62;100009.47;10412326;28;887;-72
2023/09/05 16:46:47;;;;;;;;;;;21.80;69.30;;;21.16;59.69;100004.06;10412023;28;857;-72
2023/09/05 16:51:43;;;;;;;;;;;21.80;69.30;;;21.17;59.68;100011.97;10411826;28;829;-72
2023/09/05 16:56:38;;;;;;;;;;;21.80;69.40;;;21.17;59.69;100017.25;10412363;28;1953;-72
2023/09/05 17:01:34;;;;;;;;;;;21.90;69.50;;;21.19;59.58;100023.31;10411504;28;878;-72
2023/09/05 17:06:29;;;;;;;;;;;21.90;69.30;;;21.20;59.53;100029.50;10411866;28;871;-72
2023/09/05 17:11:24;;;;;;;;;;;21.90;69.40;;;21.21;59.54;100034.69;10411285;28;801;-72
2023/09/05 17:16:20;;;;;;;;;;;21.90;69.40;;;21.21;59.34;100040.00;10410833;28;1975;-73
2023/09/05 17:21:16;;;;;;;;;;;21.90;69.50;;;21.22;59.68;100039.09;10411708;28;794;-73
2023/09/05 17:26:14;;;;;;;;;;;21.90;69.40;;;21.23;59.40;100047.88;10410717;28;860;-73
2023/09/05 17:31:09;;;;;;;;;;;21.90;69.40;;;21.24;59.54;100050.44;10410581;28;1380;-73
2023/09/05 17:36:05;;;;;;;;;;;21.90;69.40;;;21.26;59.63;100053.03;10409532;28;1897;-72
2023/09/05 17:41:00;;;;;;;;;;;21.90;69.50;;;21.27;59.71;100056.53;10409987;28;877;-73
2023/09/05 17:45:56;;;;;;;;;;;21.90;69.40;;;21.28;59.48;100058.25;10409684;28;868;-73
2023/09/05 17:50:51;;;;;;;;;;;22.00;69.60;;;21.27;59.62;100064.47;10410397;28;810;-73
2023/09/05 17:55:46;;;;;;;;;;;22.00;69.60;;;21.30;59.39;100067.84;10409394;28;1905;-73
2023/09/05 18:00:42;;;;;;;;;;;22.00;69.50;;;21.30;59.38;100078.44;10409905;28;898;-73
2023/09/05 18:05:37;;;;;;;;;;;22.00;69.50;;;21.32;59.37;100075.69;10409007;28;896;-73
2023/09/05 18:10:33;;;;;;;;;;;22.00;69.50;;;21.33;59.37;100077.44;10408296;28;1046;-73
2023/09/05 18:15:28;;;;;;;;;;;22.00;69.40;;;21.34;59.41;100087.94;10409247;28;1914;-73
2023/09/05 18:20:23;;;;;;;;;;;22.00;69.30;;;21.35;59.49;100086.13;10408552;28;838;-73
2023/09/05 18:25:19;;;;;;;;;;;22.10;69.40;;;21.36;59.69;100088.72;10409031;28;895;-73
2023/09/05 18:30:15;;;;;;;;;;;22.10;69.30;;;21.36;59.44;100083.41;10408031;28;1338;-73
2023/09/05 18:35:10;;;;;;;;;;;22.10;69.20;;;21.38;59.27;100099.28;10407930;28;1906;-72
2023/09/05 18:40:07;;;;;;;;;;;22.10;69.50;;;21.38;59.53;100108.09;10408635;28;888;-69
2023/09/05 18:45:02;;;;;;;;;;;22.10;69.50;;;21.48;59.41;100104.94;10408147;28;806;-72
2023/09/05 18:49:58;;;;;;;;;;;22.10;68.90;;;21.42;59.79;100108.78;10407671;28;783;-70
2023/09/05 18:54:53;;;;;;;;;;;22.20;69.50;;;21.36;60.34;100117.88;10408802;28;1906;-70
2023/09/05 18:59:48;;;;;;;;;;;22.20;69.70;;;21.35;60.28;100118.84;10407789;28;881;-70
2023/09/05 19:04:44;;;;;;;;;;;22.20;69.70;;;21.33;60.30;100117.19;10408418;28;952;-70
2023/09/05 19:09:39;;;;;;;;;;;22.20;69.70;;;21.34;60.42;100125.06;10408058;28;825;-70
2023/09/05 19:14:34;;;;;;;;;;;22.20;69.60;;;21.33;60.50;100126.00;10407407;28;1971;-70
2023/09/05 19:19:31;;;;;;;;;;;22.20;69.60;;;21.32;60.30;100126.94;10407940;28;869;-70
2023/09/05 19:24:26;;;;;;;;;;;22.10;69.50;;;21.34;60.63;100132.16;10407468;28;891;-70
2023/09/05 19:29:23;;;;;;;;;;;22.20;69.60;;;21.34;60.49;100126.84;10407726;28;1112;-70
2023/09/05 19:34:18;;;;;;;;;;;22.20;69.60;;;21.34;60.69;100129.50;10406821;28;1901;-70
2023/09/05 19:39:14;;;;;;;;;;;22.20;69.60;;;21.35;60.46;100128.56;10406961;28;904;-70
2023/09/05 19:44:09;;;;;;;;;;;22.20;69.50;;;21.36;60.58;100114.38;10407034;28;894;-69
2023/09/05 19:49:05;;;;;;;;;;;22.20;69.60;;;21.36;60.68;100117.03;10407335;28;829;-70
2023/09/05 19:54:00;;;;;;;;;;;22.20;69.60;;;21.36;60.72;100115.22;10406578;28;1959;-70
2023/09/05 19:58:55;;;;;;;;;;;22.20;70.50;;;21.36;60.59;100114.38;10406480;28;866;-70
2023/09/05 20:03:51;;;;;;;;;;;22.20;69.60;;;21.36;60.57;100103.78;10412167;28;777;-70
2023/09/05 20:08:46;;;;;;;;;;;22.20;69.60;;;21.37;60.69;100118.75;10413021;28;1023;-69
2023/09/05 20:13:41;;;;;;;;;;;22.20;69.60;;;21.39;60.59;100116.91;10413520;28;806;-69
2023/09/05 20:18:37;;;;;;;;;;;22.20;69.50;;;21.39;60.87;100107.16;10413286;28;1967;-69
2023/09/05 20:23:32;;;;;;;;;;;22.20;69.60;;;21.39;60.80;100109.78;10413750;28;805;-70
2023/09/05 20:28:30;;;;;;;;;;;22.30;69.70;;;21.40;60.80;100100.03;10413993;28;1545;-70
2023/09/05 20:33:29;;;;;;;;;;;22.30;69.70;;;21.40;60.99;100102.69;10412670;28;937;-70
2023/09/05 20:38:24;;;;;;;;;;;22.30;69.60;;;21.40;60.58;100108.00;10412801;28;1918;-70
2023/09/05 20:43:21;;;;;;;;;;;22.30;69.60;;;21.41;60.68;100115.03;10412482;28;913;-70
2023/09/05 20:48:16;;;;;;;;;;;22.30;69.60;;;21.41;60.54;100104.44;10412157;28;978;-70
2023/09/05 20:53:12;;;;;;;;;;;22.30;69.50;;;21.41;60.91;100102.63;10413123;28;904;-70
2023/09/05 20:58:09;;;;;;;;;;;22.30;69.40;;;21.42;60.68;100100.81;10412331;28;1971;-70
2023/09/05 21:03:05;;;;;;;;;;;22.30;69.40;;;21.42;60.73;100098.16;10412113;28;792;-70
2023/09/05 21:08:00;;;;;;;;;;;22.30;69.30;;;21.42;60.70;100095.53;10410812;28;928;-71
2023/09/05 21:12:55;;;;;;;;;;;22.30;69.40;;;21.41;60.75;100096.47;10410908;28;881;-71
2023/09/05 21:17:51;;;;;;;;;;;22.30;69.40;;;21.40;60.89;100092.09;10410991;28;1906;-70
2023/09/05 21:22:46;;;;;;;;;;;22.30;69.50;;;21.39;60.89;100093.03;10411039;28;885;-71
2023/09/05 21:27:41;;;;;;;;;;;22.30;69.50;;;21.38;60.90;100089.53;10411303;28;1302;-72
2023/09/05 21:32:37;;;;;;;;;;;22.30;69.60;;;21.39;61.01;100087.72;10409992;28;900;-71
2023/09/05 21:37:32;;;;;;;;;;;22.30;69.50;;;21.38;60.92;100083.38;10409982;28;1906;-71
2023/09/05 21:42:28;;;;;;;;;;;22.30;69.50;;;21.37;60.77;100078.97;10410604;28;946;-70
2023/09/05 21:47:23;;;;;;;;;;;22.30;69.40;;;21.39;60.75;100071.81;10409815;28;810;-70
2023/09/05 21:52:18;;;;;;;;;;;22.30;69.50;;;21.39;60.92;100074.47;10409011;28;797;-70
2023/09/05 21:57:14;;;;;;;;;;;22.30;69.50;;;21.38;60.92;100064.81;10409881;28;1901;-70
2023/09/05 22:02:09;;;;;;;;;;;22.30;69.40;;;21.37;60.93;100061.25;10409284;28;761;-71
2023/09/05 22:07:05;;;;;;;;;;;22.30;69.40;;;21.38;60.87;100065.66;10409029;28;857;-71
2023/09/05 22:12:04;;;;;;;;;;;22.30;69.30;;;21.36;60.92;100064.84;10409136;28;902;-71
2023/09/05 22:16:59;;;;;;;;;;;22.30;69.40;;;21.38;60.94;100067.47;10408583;28;1961;-70
2023/09/05 22:21:55;;;;;;;;;;;22.30;69.40;;;21.37;60.80;100071.00;10408610;28;798;-71
2023/09/05 22:26:52;;;;;;;;;;;22.30;68.50;;;21.38;60.67;100062.16;10407724;28;953;-71
2023/09/05 22:31:47;;;;;;;;;;;22.30;69.30;;;21.38;60.97;100059.50;10408803;28;1157;-70